Time;durP1;ratioP1;P1;durP2;ratioP2;P2;SDS_P1;SDS_P2;PMS_P1;PMS_P2;Temp;Humidity;BMP_temperature;BMP_pressure;BME280_temperature;BME280_humidity;BME280_pressure;Samples;Min_cycle;Max_cycle;Signal;HPM_P1;HPM_P2
2021/12/14 00:01:13;;;;;;;16.80;4.80;;;;;;;4.12;98.85;101128.59;10456125;28;20052;-74
2021/12/14 00:06:17;;;;;;;12.45;5.40;;;;;;;3.63;99.16;101066.28;10455328;28;20044;-74
2021/12/14 00:11:33;;;;;;;9.45;2.88;;;;;;;4.02;98.71;101126.72;10456440;28;20033;-74
2021/12/14 00:16:34;;;;;;;10.77;4.53;;;;;;;4.24;98.78;101155.81;10456585;28;20408;-73
2021/12/14 00:21:36;;;;;;;10.05;4.70;;;;;;;4.26;99.16;101143.41;10454896;28;20136;-74
2021/12/14 00:26:44;;;;;;;15.02;4.70;;;;;;;3.49;98.69;101011.22;10454586;28;20093;-73
2021/12/14 00:31:47;;;;;;;16.02;5.20;;;;;;;3.52;99.00;101015.44;10455328;28;20505;-73
2021/12/14 00:36:50;;;;;;;8.70;4.75;;;;;;;4.36;98.71;101122.56;10437091;28;20041;-73
2021/12/14 00:41:51;;;;;;;9.02;4.05;;;;;;;4.05;99.30;101072.13;10437174;28;20451;-73
2021/12/14 00:46:52;;;;;;;7.40;3.17;;;;;;;4.09;99.72;101062.25;10454672;28;20045;-73
2021/12/14 00:51:54;;;;;;;13.60;4.68;;;;;;;3.73;99.32;100997.34;10455467;28;20061;-74
2021/12/14 00:56:55;;;;;;;9.93;5.53;;;;;;;4.06;99.81;101052.78;10455082;28;20047;-74
2021/12/14 01:02:01;;;;;;;12.80;5.68;;;;;;;4.43;99.59;101107.19;10457490;28;20068;-73
2021/12/14 01:07:03;;;;;;;11.95;5.30;;;;;;;4.44;99.54;101108.88;10469066;28;20508;-73
2021/12/14 01:12:12;;;;;;;14.68;5.68;;;;;;;3.73;100.00;100986.81;10467931;28;20040;-73
2021/12/14 01:17:28;;;;;;;10.32;4.20;;;;;;;3.70;100.00;100966.84;10467045;28;20036;-74
2021/12/14 01:22:40;;;;;;;12.70;5.70;;;;;;;3.52;100.00;100932.22;10468254;28;20108;-73
2021/12/14 01:27:41;;;;;;;18.33;5.90;;;;;;;3.59;100.00;100930.00;10467741;28;20047;-73
2021/12/14 01:32:46;;;;;;;9.52;4.72;;;;;;;2.81;100.00;100788.47;10466982;28;20043;-74
2021/12/14 01:38:01;;;;;;;14.38;5.88;;;;;;;4.51;100.00;101079.38;10467034;28;20408;-74
2021/12/14 01:43:01;;;;;;;11.20;5.47;;;;;;;4.53;100.00;101066.13;10467895;28;20041;-74
2021/12/14 01:48:03;;;;;;;14.93;6.43;;;;;;;4.01;100.00;100985.69;10466935;28;20061;-73
2021/12/14 01:53:05;;;;;;;10.40;5.75;;;;;;;4.53;100.00;101071.38;10467372;28;20076;-73
2021/12/14 01:58:10;;;;;;;14.63;6.35;;;;;;;3.89;100.00;100961.16;10467188;28;20855;-73
2021/12/14 02:03:14;;;;;;;10.50;5.38;;;;;;;3.77;100.00;100930.47;10467264;28;20037;-74
2021/12/14 02:08:28;;;;;;;16.67;6.75;;;;;;;3.73;100.00;100919.34;10467121;28;20040;-73
2021/12/14 02:13:42;;;;;;;11.23;5.63;;;;;;;4.51;100.00;101041.69;10464098;28;20045;-73
2021/12/14 02:18:51;;;;;;;12.18;6.15;;;;;;;4.53;100.00;101050.34;10460055;28;20124;-73
2021/12/14 02:23:54;;;;;;;20.05;5.88;;;;;;;3.79;100.00;100921.53;10460967;28;20136;-73
2021/12/14 02:28:58;;;;;;;13.18;4.60;;;;;;;3.79;100.00;100915.44;10459278;28;20075;-73
2021/12/14 02:34:02;;;;;;;14.40;5.55;;;;;;;3.72;100.00;100911.59;10460216;28;20507;-73
2021/12/14 02:39:09;;;;;;;16.60;7.03;;;;;;;3.64;100.00;100884.06;10458887;28;20100;-73
2021/12/14 02:44:10;;;;;;;20.52;7.13;;;;;;;4.17;100.00;100981.03;10458566;28;20132;-73
2021/12/14 02:49:18;;;;;;;19.90;6.63;;;;;;;4.74;100.00;101064.53;10459771;28;20098;-73
2021/12/14 02:54:21;;;;;;;16.05;7.45;;;;;;;4.80;100.00;101063.25;10458733;28;20522;-73
2021/12/14 02:59:28;;;;;;;20.75;7.30;;;;;;;4.85;100.00;101065.56;10463250;28;20131;-79
2021/12/14 03:04:29;;;;;;;17.23;7.47;;;;;;;4.75;100.00;101039.06;10488424;28;20540;-75
2021/12/14 03:09:53;;;;;;;16.80;7.15;;;;;;;4.60;100.00;101013.88;10469496;28;20041;-73
2021/12/14 03:15:10;;;;;;;20.23;7.90;;;;;;;4.92;100.00;101070.25;10458117;28;20044;-74
2021/12/14 03:20:34;;;;;;;27.90;8.45;;;;;;;4.94;100.00;101060.44;10457919;28;20352;-74
2021/12/14 03:25:38;;;;;;;17.63;7.53;;;;;;;4.86;100.00;101054.91;10457389;28;20040;-73
2021/12/14 03:30:49;;;;;;;13.85;6.18;;;;;;;3.90;100.00;100868.19;10455549;28;20041;-74
2021/12/14 03:35:56;;;;;;;13.43;6.93;;;;;;;4.45;100.00;100953.53;10458592;28;20051;-74
2021/12/14 03:41:01;;;;;;;14.57;5.60;;;;;;;4.72;100.00;100982.22;10456864;28;20051;-75
2021/12/14 03:46:03;;;;;;;19.38;7.60;;;;;;;4.64;100.00;100958.28;10455835;28;20488;-73
2021/12/14 03:51:05;;;;;;;19.80;7.50;;;;;;;4.36;100.00;100920.03;10456738;28;20091;-74
2021/12/14 03:56:07;;;;;;;18.88;8.43;;;;;;;4.99;100.00;101016.16;10451982;28;20516;-74
2021/12/14 04:01:08;;;;;;;20.75;8.52;;;;;;;5.00;100.00;101011.75;10451399;28;20048;-75
2021/12/14 04:06:09;;;;;;;20.00;8.98;;;;;;;5.03;100.00;101011.53;10450444;28;20044;-75
2021/12/14 04:11:12;;;;;;;16.98;7.20;;;;;;;4.66;100.00;100966.06;10467947;28;20133;-84
2021/12/14 04:16:18;;;;;;;17.48;8.60;;;;;;;5.00;100.00;101033.66;10496961;28;20419;-74
2021/12/14 04:21:19;;;;;;;21.15;8.30;;;;;;;4.40;100.00;100926.75;10496789;28;20079;-81
2021/12/14 04:26:20;;;;;;;20.80;8.75;;;;;;;4.76;100.00;100977.59;10496340;28;20032;-78
2021/12/14 04:31:22;;;;;;;23.58;9.77;;;;;;;5.02;100.00;101031.72;10478885;28;20152;-73
2021/12/14 04:36:26;;;;;;;19.17;8.70;;;;;;;5.09;100.00;101018.13;10495935;28;20040;-74
2021/12/14 04:52:29;;;;;;;20.75;9.40;;;;;;;4.23;100.00;100856.97;10453611;28;20131;-75
2021/12/14 04:57:33;;;;;;;20.50;8.83;;;;;;;5.38;100.00;101031.69;10462233;28;20045;-75
2021/12/14 05:02:38;;;;;;;20.38;8.52;;;;;;;5.12;100.00;100991.56;10452231;28;20120;-75
2021/12/14 05:12:42;;;;;;;22.70;8.55;;;;;;;5.24;100.00;100999.34;10454093;28;20041;-74
2021/12/14 05:17:45;;;;;;;21.52;8.30;;;;;;;4.78;100.00;100913.31;10454291;28;20037;-75
2021/12/14 05:22:47;;;;;;;19.75;8.13;;;;;;;5.42;100.00;100996.28;10436316;28;20444;-75
2021/12/14 05:27:51;;;;;;;17.10;7.82;;;;;;;5.58;100.00;101009.09;10453834;28;20091;-75
2021/12/14 05:33:00;;;;;;;20.92;8.20;;;;;;;5.63;100.00;101014.84;10435576;28;20116;-75
2021/12/14 05:38:03;;;;;;;20.48;7.25;;;;;;;5.40;100.00;100942.84;10453453;28;20532;-75
2021/12/14 05:43:15;;;;;;;20.67;8.05;;;;;;;5.53;100.00;100964.63;10453557;28;20037;-76
2021/12/14 05:48:23;;;;;;;20.17;8.43;;;;;;;5.48;100.00;100945.72;10453179;28;20507;-77
2021/12/14 05:53:26;;;;;;;18.15;7.03;;;;;;;5.00;100.00;100849.34;10461471;28;20041;-75
2021/12/14 05:58:29;;;;;;;17.30;7.88;;;;;;;5.96;100.00;101013.19;10461506;28;20041;-75
2021/12/14 06:03:36;;;;;;;18.52;7.72;;;;;;;5.91;100.00;101003.78;10459571;28;20497;-75
2021/12/14 06:08:37;;;;;;;18.98;8.38;;;;;;;5.71;100.00;100960.56;10460537;28;20106;-75
2021/12/14 06:13:43;;;;;;;19.27;8.55;;;;;;;4.60;100.00;100761.25;10459848;28;20047;-76
2021/12/14 06:18:44;;;;;;;14.77;7.25;;;;;;;5.64;100.00;100926.91;10460622;28;20404;-75
2021/12/14 06:23:45;;;;;;;19.23;10.38;;;;;;;5.74;100.00;100943.66;10460074;28;20044;-75
2021/12/14 06:28:46;;;;;;;21.25;10.00;;;;;;;5.44;100.00;100908.25;10459745;28;20036;-75
2021/12/14 06:33:46;;;;;;;14.27;7.13;;;;;;;5.98;100.00;100979.59;10460137;28;20504;-75
2021/12/14 06:38:47;;;;;;;20.10;8.02;;;;;;;5.58;100.00;100915.03;10459789;28;20485;-78
2021/12/14 06:43:52;;;;;;;14.73;7.68;;;;;;;6.16;100.00;100996.59;10459384;28;20060;-75
2021/12/14 06:48:55;;;;;;;;;;;;;;;6.25;100.00;100995.88;10459919;28;20060;-75
2021/12/14 06:53:59;;;;;;;16.98;7.53;;;;;;;5.13;100.00;100817.59;10458433;28;19921;-75
2021/12/14 06:59:05;;;;;;;23.60;7.18;;;;;;;5.87;100.00;100939.09;10457407;28;20065;-76
2021/12/14 07:04:18;;;;;;;15.63;8.05;;;;;;;5.38;100.00;100848.09;10458605;28;20041;-77
2021/12/14 07:09:45;;;;;;;22.35;6.63;;;;;;;6.35;100.00;101002.06;10459046;28;20067;-77
2021/12/14 07:14:49;;;;;;;18.63;7.82;;;;;;;6.39;100.00;100984.19;10456911;28;20045;-76
2021/12/14 07:20:04;;;;;;;14.50;6.32;;;;;;;6.33;100.00;100968.84;10439834;28;20131;-77
2021/12/14 07:25:21;;;;;;;17.00;7.10;;;;;;;5.19;100.00;100768.88;10456540;28;20037;-77
2021/12/14 07:30:33;;;;;;;19.88;7.38;;;;;;;6.46;100.00;100977.44;10457646;28;20041;-79
2021/12/14 07:35:39;;;;;;;18.42;6.80;;;;;;;6.42;100.00;100964.63;10457734;28;20048;-76
2021/12/14 07:40:42;;;;;;;16.08;6.07;;;;;;;6.53;100.00;100961.94;10438923;28;20041;-76
2021/12/14 07:45:43;;;;;;;14.60;7.75;;;;;;;6.43;100.00;100939.88;10456952;28;20052;-75
2021/12/14 07:50:52;;;;;;;27.38;9.70;;;;;;;5.95;100.00;100854.09;10456946;28;20084;-76
2021/12/14 07:55:52;;;;;;;22.77;7.97;;;;;;;6.31;100.00;100892.47;10455960;28;20073;-76
2021/12/14 08:00:53;;;;;;;17.88;8.27;;;;;;;6.88;100.00;100966.06;10455872;28;20103;-76
2021/12/14 08:05:54;;;;;;;22.65;7.22;;;;;;;5.82;100.00;100785.69;10456770;28;20047;-75
2021/12/14 08:11:08;;;;;;;21.80;7.22;;;;;;;7.04;100.00;100955.91;10454324;28;20033;-76
2021/12/14 08:16:09;;;;;;;23.05;7.10;;;;;;;7.13;100.00;100970.13;10455832;28;20055;-76
2021/12/14 08:21:15;;;;;;;20.95;7.70;;;;;;;7.20;100.00;100943.03;10455305;28;20459;-76
2021/12/14 08:26:29;;;;;;;18.17;7.88;;;;;;;7.10;100.00;100902.53;10455951;28;20041;-76
2021/12/14 08:31:34;;;;;;;19.38;7.32;;;;;;;7.35;100.00;100925.03;10455056;28;20042;-77
2021/12/14 08:36:49;;;;;;;18.40;5.70;;;;;;;7.42;100.00;100912.97;10455500;28;20087;-77
2021/12/14 08:41:58;;;;;;;17.05;5.82;;;;;;;6.28;100.00;100718.59;10454901;28;20522;-78
2021/12/14 08:46:59;;;;;;;9.25;5.47;;;;;;;6.46;100.00;100754.91;10455322;28;20378;-77
2021/12/14 08:52:00;;;;;;;16.10;6.40;;;;;;;6.99;100.00;100849.78;10455003;28;20063;-76
2021/12/14 08:57:13;;;;;;;17.33;6.35;;;;;;;7.21;100.00;100852.25;10454385;28;20045;-77
2021/12/14 09:02:16;;;;;;;15.65;6.10;;;;;;;7.48;100.00;100908.97;10454175;28;20037;-75
2021/12/14 09:07:21;;;;;;;9.40;5.43;;;;;;;7.03;100.00;100819.47;10454704;28;20455;-77
2021/12/14 09:12:34;;;;;;;14.85;5.93;;;;;;;6.21;100.00;100693.66;10453997;28;20454;-76
2021/12/14 09:17:35;;;;;;;14.07;6.03;;;;;;;7.05;100.00;100826.31;10454889;28;20489;-75
2021/12/14 09:22:41;;;;;;;9.75;5.65;;;;;;;7.04;100.00;100808.81;10455789;28;20037;-76
2021/12/14 09:27:42;;;;;;;14.85;6.68;;;;;;;5.78;100.00;100599.75;10462308;28;20055;-76
2021/12/14 09:32:44;;;;;;;11.88;5.85;;;;;;;7.49;100.00;100881.53;10462136;28;20049;-76
2021/12/14 09:37:48;;;;;;;13.85;7.00;;;;;;;5.58;100.00;100571.59;10462554;28;20045;-76
2021/12/14 09:42:50;;;;;;;16.40;7.07;;;;;;;6.74;100.00;100783.25;10460449;28;20043;-75
2021/12/14 09:47:51;;;;;;;15.35;8.50;;;;;;;7.31;100.00;100858.41;10461866;28;20477;-75
2021/12/14 09:52:54;;;;;;;16.77;8.13;;;;;;;7.02;100.00;100815.19;10462119;28;20084;-75
2021/12/14 09:57:58;;;;;;;24.52;13.10;;;;;;;7.09;100.00;100811.88;10461727;28;20040;-76
2021/12/14 10:03:00;;;;;;;;;;;;;;;7.47;100.00;100847.31;10462257;28;20120;-78
2021/12/14 10:08:13;;;;;;;16.70;9.18;;;;;;;6.43;100.00;100705.84;10459692;28;19920;-75
2021/12/14 10:13:15;;;;;;;17.17;10.00;;;;;;;7.18;100.00;100834.03;10460092;28;20045;-75
2021/12/14 10:18:27;;;;;;;19.05;11.23;;;;;;;6.51;100.00;100732.41;10442577;28;20535;-75
2021/12/14 10:23:31;;;;;;;55.15;27.80;;;;;;;6.67;100.00;100757.50;10460115;28;20036;-75
2021/12/14 10:28:35;;;;;;;24.17;13.27;;;;;;;7.11;100.00;100814.38;10460107;28;20103;-75
2021/12/14 10:33:42;;;;;;;20.92;10.65;;;;;;;6.98;100.00;100782.91;10459399;28;20033;-76
2021/12/14 10:44:11;;;;;;;23.20;10.27;;;;;;;7.16;100.00;100800.78;10427995;28;20103;-76
2021/12/14 10:49:15;;;;;;;22.42;10.90;;;;;;;6.20;100.00;100647.16;10459474;28;20118;-76
2021/12/14 10:54:17;;;;;;;22.05;10.15;;;;;;;6.31;100.00;100657.63;10458498;28;20048;-75
2021/12/14 10:59:22;;;;;;;19.92;10.27;;;;;;;6.94;100.00;100754.25;10459056;28;20496;-75
2021/12/14 11:04:37;;;;;;;20.52;10.63;;;;;;;6.27;100.00;100640.38;10458586;28;20041;-75
2021/12/14 11:09:47;;;;;;;26.10;10.60;;;;;;;6.88;100.00;100750.38;10458341;28;20033;-75
2021/12/14 11:14:57;;;;;;;24.23;10.40;;;;;;;7.27;100.00;100798.88;10457471;28;20070;-76
2021/12/14 11:20:20;;;;;;;20.88;9.88;;;;;;;7.19;100.00;100780.19;10458199;28;20044;-76
2021/12/14 11:25:25;;;;;;;23.65;10.27;;;;;;;7.15;100.00;100762.09;10456644;28;20057;-75
2021/12/14 11:30:46;;;;;;;19.60;10.73;;;;;;;7.09;100.00;100745.84;10457489;28;20527;-75
2021/12/14 11:35:53;;;;;;;19.58;10.32;;;;;;;7.16;100.00;100763.78;10457401;28;20136;-75
2021/12/14 11:40:56;;;;;;;20.42;10.00;;;;;;;7.21;100.00;100793.25;10456707;28;20045;-77
2021/12/14 11:46:05;;;;;;;20.33;10.57;;;;;;;7.16;100.00;100783.13;10456611;28;20080;-75
2021/12/14 11:51:08;;;;;;;21.42;10.23;;;;;;;7.05;100.00;100762.06;10457031;28;20553;-75
2021/12/14 11:56:14;;;;;;;21.20;9.70;;;;;;;7.12;100.00;100783.50;10455909;28;20047;-75
2021/12/14 12:01:28;;;;;;;36.33;23.40;;;;;;;6.99;100.00;100768.72;10456144;28;20080;-75
2021/12/14 12:11:46;;;;;;;35.42;18.35;;;;;;;7.23;100.00;100794.81;10455777;28;20051;-75
2021/12/14 12:16:49;;;;;;;25.30;12.65;;;;;;;7.23;100.00;100781.59;10454539;28;20480;-75
2021/12/14 12:21:51;;;;;;;23.65;12.93;;;;;;;6.95;100.00;100729.53;10455909;28;20094;-75
2021/12/14 12:26:52;;;;;;;27.98;12.13;;;;;;;6.23;100.00;100617.88;10455386;28;20044;-75
2021/12/14 12:32:05;;;;;;;35.72;18.75;;;;;;;6.84;100.00;100720.72;10455719;28;20493;-75
2021/12/14 12:37:06;;;;;;;38.28;21.85;;;;;;;6.53;100.00;100666.31;10458484;28;20043;-75
2021/12/14 12:42:07;;;;;;;23.75;13.95;;;;;;;7.17;100.00;100773.38;10458881;28;20041;-74
2021/12/14 12:47:19;;;;;;;28.85;11.82;;;;;;;6.82;100.00;100735.91;10483300;28;20135;-71
2021/12/14 12:52:30;;;;;;;19.15;10.32;;;;;;;6.16;100.00;100630.78;10487525;28;20119;-75
2021/12/14 12:57:55;;;;;;;27.08;15.43;;;;;;;7.10;100.00;100773.09;10469270;28;20131;-86
2021/12/14 13:03:14;;;;;;;38.35;17.75;;;;;;;7.06;100.00;100777.81;10488616;28;20417;-74
2021/12/14 13:08:26;;;;;;;36.17;11.88;;;;;;;7.04;100.00;100777.09;10495831;28;20086;-77
2021/12/14 13:13:50;;;;;;;20.02;10.45;;;;;;;6.48;100.00;100687.00;10496672;28;20546;-74
2021/12/14 13:19:01;;;;;;;20.98;10.32;;;;;;;5.84;100.00;100580.75;10495638;28;20040;-75
2021/12/14 13:24:11;;;;;;;27.80;11.27;;;;;;;6.85;100.00;100750.63;10495727;28;20087;-78
2021/12/14 13:29:11;;;;;;;22.10;10.73;;;;;;;6.59;100.00;100706.19;10477802;28;20166;-75
2021/12/14 13:34:17;;;;;;;21.65;9.70;;;;;;;6.73;100.00;100744.63;10457627;28;20194;-76
2021/12/14 13:39:19;;;;;;;21.77;10.50;;;;;;;6.45;100.00;100708.38;10493224;28;20044;-76
2021/12/14 13:44:20;;;;;;;20.67;10.25;;;;;;;6.74;100.00;100753.38;10474881;28;20602;-76
2021/12/14 13:49:21;;;;;;;22.50;10.43;;;;;;;5.47;100.00;100554.91;10484649;28;20056;-78
2021/12/14 13:54:23;;;;;;;19.73;9.63;;;;;;;6.63;100.00;100733.16;10485869;28;20055;-75
2021/12/14 13:59:24;;;;;;;23.60;11.18;;;;;;;6.76;100.00;100747.00;10487958;28;20040;-76
2021/12/14 14:04:27;;;;;;;33.67;20.35;;;;;;;6.76;100.00;100747.00;10487290;28;20430;-75
2021/12/14 14:09:30;;;;;;;34.22;20.20;;;;;;;6.66;100.00;100721.50;10469632;28;20130;-75
2021/12/14 14:14:33;;;;;;;32.78;18.42;;;;;;;5.34;100.00;100504.22;10489256;28;20512;-75
2021/12/14 14:19:41;;;;;;;31.77;16.30;;;;;;;4.97;100.00;100438.88;10494975;28;20097;-75
2021/12/14 14:24:55;;;;;;;27.45;12.75;;;;;;;6.35;100.00;100674.84;10488409;28;20051;-75
2021/12/14 14:29:56;;;;;;;21.13;10.85;;;;;;;5.73;100.00;100568.50;10494772;28;20040;-75
2021/12/14 14:34:59;;;;;;;19.73;10.73;;;;;;;6.60;100.00;100710.50;10494595;28;20040;-74
2021/12/14 14:40:16;;;;;;;25.92;13.00;;;;;;;6.55;99.34;100710.09;10476155;28;20477;-75
2021/12/14 14:45:27;;;;;;;33.90;20.70;;;;;;;4.90;99.36;100448.22;10491609;28;20049;-75
2021/12/14 14:50:31;;;;;;;36.63;20.92;;;;;;;6.65;99.83;100738.31;10492704;28;20528;-75
2021/12/14 14:55:38;;;;;;;39.55;20.95;;;;;;;6.51;99.63;100727.13;10485009;28;20560;-74
2021/12/14 15:01:00;;;;;;;35.90;20.05;;;;;;;6.60;99.18;100726.34;10495906;28;20052;-75
2021/12/14 15:06:13;;;;;;;39.78;24.13;;;;;;;6.60;99.64;100725.50;10500447;28;20142;-75
2021/12/14 15:11:18;;;;;;;28.15;16.90;;;;;;;4.93;98.95;100442.69;10499921;28;20055;-74
2021/12/14 15:16:24;;;;;;;28.58;18.38;;;;;;;6.53;99.64;100709.38;10499566;28;20067;-74
2021/12/14 15:21:36;;;;;;;39.30;24.98;;;;;;;5.03;98.32;100469.94;10498694;28;20098;-75
2021/12/14 15:26:37;;;;;;;40.92;18.38;;;;;;;6.26;99.67;100678.28;10499125;28;20047;-75
2021/12/14 15:31:38;;;;;;;35.85;18.60;;;;;;;5.59;99.27;100568.00;10496161;28;20056;-74
2021/12/14 15:36:39;;;;;;;22.42;13.48;;;;;;;4.92;98.97;100456.00;10479691;28;20041;-76
2021/12/14 15:41:42;;;;;;;23.23;10.23;;;;;;;4.70;98.62;100423.59;10493309;28;20040;-75
2021/12/14 15:46:47;;;;;;;15.95;8.77;;;;;;;4.98;97.98;100464.22;10494958;28;20040;-75
2021/12/14 15:51:56;;;;;;;22.00;14.65;;;;;;;5.89;97.92;100631.31;10495573;28;20147;-75
2021/12/14 15:57:06;;;;;;;19.75;10.18;;;;;;;5.43;97.68;100565.81;10496058;28;20094;-76
2021/12/14 16:02:28;;;;;;;15.88;8.63;;;;;;;6.39;97.13;100686.81;10494994;28;20037;-75
2021/12/14 16:07:38;;;;;;;15.57;8.13;;;;;;;6.38;97.32;100682.50;10493711;28;20154;-74
2021/12/14 16:17:47;;;;;;;18.80;8.95;;;;;;;6.30;96.80;100666.50;10485624;28;20548;-76
2021/12/14 16:22:51;;;;;;;18.63;8.18;;;;;;;5.99;96.88;100618.19;10495199;28;20039;-76
2021/12/14 16:28:03;;;;;;;20.37;8.80;;;;;;;6.16;96.70;100640.47;10494306;28;20043;-76
2021/12/14 16:33:11;;;;;;;13.70;7.85;;;;;;;5.30;96.88;100504.63;10493050;28;20044;-76
2021/12/14 16:38:14;;;;;;;18.13;9.35;;;;;;;6.15;96.55;100652.81;10494014;28;20044;-76
2021/12/14 16:43:29;;;;;;;16.95;8.77;;;;;;;5.43;96.33;100550.03;10467938;28;20083;-75
2021/12/14 16:48:35;;;;;;;18.02;8.40;;;;;;;6.10;96.64;100659.44;10486362;28;20454;-75
2021/12/14 16:53:52;;;;;;;20.23;9.05;;;;;;;5.57;96.33;100575.22;10462458;28;20408;-76
2021/12/14 16:59:00;;;;;;;23.98;9.30;;;;;;;5.46;96.40;100547.13;10454631;28;20052;-75
2021/12/14 17:04:04;;;;;;;16.65;8.63;;;;;;;5.49;96.75;100550.31;10475424;28;20105;-76
2021/12/14 17:09:11;;;;;;;16.00;8.30;;;;;;;5.86;96.29;100626.28;10468931;28;20036;-75
2021/12/14 17:14:23;;;;;;;18.02;9.02;;;;;;;4.83;96.33;100457.63;10488714;28;20040;-75
2021/12/14 17:19:24;;;;;;;14.70;9.02;;;;;;;5.81;96.76;100615.28;10494240;28;20093;-75
2021/12/14 17:24:30;;;;;;;22.33;9.23;;;;;;;5.91;96.13;100637.25;10495061;28;20070;-76
2021/12/14 17:29:35;;;;;;;16.63;8.80;;;;;;;5.98;95.73;100653.44;10481506;28;20041;-73
2021/12/14 17:34:41;;;;;;;16.15;9.07;;;;;;;5.64;95.55;100621.16;10495611;28;20141;-74
2021/12/14 17:39:45;;;;;;;23.73;9.63;;;;;;;5.81;95.59;100641.66;10492375;28;20057;-73
2021/12/14 17:44:53;;;;;;;15.32;9.23;;;;;;;5.79;95.85;100646.22;10495479;28;20504;-75
2021/12/14 17:50:00;;;;;;;17.52;9.32;;;;;;;5.40;94.88;100572.19;10500464;28;20052;-73
2021/12/14 17:55:35;;;;;;;24.80;11.63;;;;;;;5.85;95.93;100640.44;10502129;28;20507;-73
2021/12/14 18:00:43;;;;;;;18.10;9.05;;;;;;;5.86;95.88;100636.84;10481344;28;20493;-74
2021/12/14 18:05:51;;;;;;;18.98;9.63;;;;;;;4.98;95.69;100479.19;10502161;28;20086;-74
2021/12/14 18:10:56;;;;;;;17.27;8.98;;;;;;;5.70;95.55;100603.00;10493383;28;20044;-76
2021/12/14 18:16:06;;;;;;;19.98;9.13;;;;;;;5.52;95.10;100580.84;10494876;28;20067;-73
2021/12/14 18:21:11;;;;;;;21.27;9.13;;;;;;;5.76;95.66;100604.31;10479047;28;20049;-74
2021/12/14 18:26:19;;;;;;;16.88;8.43;;;;;;;5.91;95.82;100624.09;10488001;28;20053;-74
2021/12/14 18:31:21;;;;;;;21.80;8.65;;;;;;;5.66;95.52;100604.25;10485465;28;20044;-73
2021/12/14 18:36:48;;;;;;;18.42;8.25;;;;;;;5.56;94.54;100568.25;10497741;28;20496;-74
2021/12/14 18:42:00;;;;;;;18.15;8.20;;;;;;;5.78;95.42;100625.28;10495650;28;20147;-74
2021/12/14 18:47:15;;;;;;;19.17;9.02;;;;;;;5.72;95.91;100598.47;10496826;28;20049;-74
2021/12/14 18:52:25;;;;;;;18.52;9.45;;;;;;;5.40;94.93;100551.13;10494671;28;20093;-74
2021/12/14 18:57:28;;;;;;;14.68;8.60;;;;;;;5.81;95.05;100620.56;10498004;28;20044;-74
2021/12/14 19:02:34;;;;;;;23.02;10.18;;;;;;;5.24;94.67;100519.97;10497951;28;20045;-74
2021/12/14 19:07:54;;;;;;;23.52;10.55;;;;;;;4.83;94.71;100468.13;10479033;28;20044;-75
2021/12/14 19:12:57;;;;;;;20.77;10.25;;;;;;;5.80;95.60;100612.78;10493004;28;20499;-74
2021/12/14 19:18:06;;;;;;;19.98;9.82;;;;;;;4.05;94.86;100341.28;10471424;28;20040;-74
2021/12/14 19:23:09;;;;;;;19.67;9.45;;;;;;;5.01;95.64;100494.72;10456880;28;20033;-74
2021/12/14 19:28:16;;;;;;;18.10;9.07;;;;;;;5.60;95.44;100586.31;10456742;28;20064;-74
2021/12/14 19:33:29;;;;;;;22.50;10.60;;;;;;;5.71;94.84;100601.22;10439387;28;20060;-75
2021/12/14 19:38:33;;;;;;;26.40;10.10;;;;;;;5.74;95.82;100600.94;10497542;28;20496;-74
2021/12/14 19:43:38;;;;;;;20.27;9.87;;;;;;;5.76;95.79;100608.75;10498531;28;20047;-74
2021/12/14 19:48:54;;;;;;;20.25;11.18;;;;;;;5.76;95.38;100608.75;10497788;28;20099;-74
2021/12/14 19:54:06;;;;;;;20.85;9.25;;;;;;;4.89;94.87;100480.78;10498093;28;20083;-74
2021/12/14 19:59:08;;;;;;;21.05;10.40;;;;;;;5.46;95.48;100550.59;10498252;28;20137;-74
2021/12/14 20:04:09;;;;;;;25.65;9.25;;;;;;;5.45;95.40;100562.09;10478975;28;20153;-74
2021/12/14 20:09:20;;;;;;;21.92;10.30;;;;;;;5.70;95.37;100581.94;10493987;28;20090;-74
2021/12/14 20:14:33;;;;;;;21.83;10.13;;;;;;;5.29;94.91;100506.41;10495668;28;20052;-74
2021/12/14 20:19:41;;;;;;;24.23;9.98;;;;;;;5.66;94.99;100577.06;10497341;28;20090;-74
2021/12/14 20:24:45;;;;;;;26.05;10.50;;;;;;;5.62;95.64;100583.53;10496115;28;20407;-74
2021/12/14 20:29:50;;;;;;;33.80;11.75;;;;;;;5.58;95.53;100576.88;10496730;28;20042;-74
2021/12/14 20:35:22;;;;;;;24.95;11.15;;;;;;;5.64;95.25;100573.72;10496350;28;20724;-74
2021/12/14 20:40:31;;;;;;;24.75;11.57;;;;;;;5.54;95.21;100564.94;10495788;28;20068;-74
2021/12/14 20:50:51;;;;;;;18.40;10.20;;;;;;;4.49;95.43;100392.03;10496615;28;20189;-74
2021/12/14 20:56:00;;;;;;;19.30;11.00;;;;;;;5.51;95.20;100538.84;10496020;28;20036;-74
2021/12/14 21:01:05;;;;;;;19.33;10.43;;;;;;;5.47;95.54;100565.47;10495383;28;20068;-74
2021/12/14 21:06:18;;;;;;;20.20;10.35;;;;;;;5.24;95.79;100508.59;10496161;28;20042;-77
2021/12/14 21:11:29;;;;;;;21.67;11.50;;;;;;;5.07;96.05;100459.16;10495386;28;20033;-74
2021/12/14 21:16:35;;;;;;;25.33;10.82;;;;;;;5.42;95.14;100514.09;10477943;28;20033;-74
2021/12/14 21:21:36;;;;;;;26.45;11.20;;;;;;;5.20;95.32;100480.84;10501078;28;20041;-74
2021/12/14 21:26:37;;;;;;;23.30;12.07;;;;;;;3.87;95.84;100249.03;10503962;28;20040;-74
2021/12/14 21:31:43;;;;;;;22.17;12.13;;;;;;;4.64;95.26;100376.75;10503204;28;20041;-74
2021/12/14 21:36:46;;;;;;;27.65;11.50;;;;;;;5.49;96.19;100526.63;10503504;28;20040;-74
2021/12/14 21:41:55;;;;;;;27.83;11.48;;;;;;;5.37;96.04;100489.94;10503256;28;20044;-74
2021/12/14 21:47:08;;;;;;;24.20;11.80;;;;;;;4.74;95.83;100422.38;10503607;28;20040;-74
2021/12/14 21:52:17;;;;;;;27.60;12.77;;;;;;;5.49;94.71;100523.97;10503401;28;20076;-74
2021/12/14 21:57:43;;;;;;;29.70;13.35;;;;;;;4.23;94.34;100320.53;10503232;28;20048;-74
2021/12/14 22:02:45;;;;;;;28.60;12.95;;;;;;;5.17;95.30;100483.72;10503390;28;20032;-74
2021/12/14 22:07:48;;;;;;;24.90;12.50;;;;;;;5.46;95.45;100524.25;10502742;28;20037;-74
2021/12/14 22:12:49;;;;;;;22.83;11.95;;;;;;;5.17;94.80;100479.28;10502038;28;20047;-74
2021/12/14 22:17:52;;;;;;;32.40;13.52;;;;;;;5.32;95.35;100519.31;10502507;28;20041;-74
2021/12/14 22:22:53;;;;;;;28.02;12.60;;;;;;;5.23;95.33;100514.81;10502715;28;20044;-74
2021/12/14 22:27:56;;;;;;;36.97;12.98;;;;;;;5.17;95.67;100513.53;10500876;28;20056;-74
2021/12/14 22:32:58;;;;;;;27.73;12.77;;;;;;;4.96;96.18;100481.94;10500388;28;20036;-73
2021/12/14 22:38:01;;;;;;;34.65;13.43;;;;;;;4.66;95.79;100439.75;10500239;28;20127;-74
2021/12/14 22:48:16;;;;;;;;;;;;;;;5.14;96.09;100484.00;10501469;28;20190;-74
2021/12/14 22:53:17;;;;;;;28.27;12.85;;;;;;;4.77;95.98;100442.34;10501502;28;20371;-73
2021/12/14 22:58:18;;;;;;;31.83;13.80;;;;;;;3.87;96.28;100301.59;10501039;28;20123;-74
2021/12/14 23:03:19;;;;;;;28.90;13.52;;;;;;;4.57;96.50;100415.03;10500766;28;20114;-74
2021/12/14 23:08:20;;;;;;;26.55;13.32;;;;;;;4.83;96.47;100457.63;10499988;28;20126;-74
2021/12/14 23:13:36;;;;;;;27.52;13.23;;;;;;;4.26;95.91;100358.91;10499449;28;20060;-73
2021/12/14 23:18:52;;;;;;;25.73;11.80;;;;;;;3.77;95.78;100279.66;10499845;28;20044;-74
2021/12/14 23:23:54;;;;;;;20.23;11.38;;;;;;;4.72;96.08;100426.91;10499817;28;20063;-74
2021/12/14 23:28:57;;;;;;;22.55;11.30;;;;;;;4.83;95.70;100462.03;10498634;28;20040;-73
2021/12/14 23:33:58;;;;;;;21.17;11.55;;;;;;;4.39;94.96;100379.75;10499441;28;20043;-74
2021/12/14 23:38:59;;;;;;;27.08;12.23;;;;;;;4.61;94.75;100411.22;10498078;28;20131;-74
2021/12/14 23:44:02;;;;;;;23.42;12.25;;;;;;;3.79;95.31;100288.22;10498205;28;20123;-74
2021/12/14 23:49:06;;;;;;;24.90;11.48;;;;;;;4.09;95.42;100331.34;10498751;28;20496;-74
2021/12/14 23:54:10;;;;;;;22.35;11.63;;;;;;;4.60;95.14;100427.09;10480354;28;20060;-73